首页
METAR-TAF:

METAR-TAF

机场 :

贝尔法斯特国际机场

贝尔法斯特, 北爱尔兰

纬度: 54-39N, 经度: 006-13W, 海拔: 81米

当前天气观测

该预报发布于41分钟前的14:20 UTC
风速10节,风向西南
温度 14°C
湿度 100%
气压 1019 hPa
能見度: 3500
少量云层高于400英尺
多云层高于1000英尺
雨, 轻雾

METAR: EGAA 241420Z 23010KT 3500 RA BR FEW004 BKN010 14/14 Q1019

时间: 16:01 (15:01 UTC)

预报

该预报发布于4小时和5分钟前的10:56 UTC
预报有效从24日的 12点(UTC)到 25日的 12点(UTC)
风速7节,风向西转西南
能见度10公里或以上
散云层高于1200英尺
多云层高于2500英尺
短暂存在
从 24日的 12点(UTC)到 24日的 18点(UTC)
能見度: 6000
多云层高于700英尺
雨, 小雨, 毛毛雨
几率 40% :
短暂存在
从 24日的 12点(UTC)到 24日的 15点(UTC)
能見度: 2000
多云层高于400英尺
大雨, 雨, 毛毛雨
几率 30% :
短暂存在
从 24日的 15点(UTC)到 24日的 18点(UTC)
能見度: 3000
大雨, 雨, 毛毛雨
成为
从 24日的 17点(UTC)到 24日的 20点(UTC)
风速12节,风向北转西北
几率 30% :
短暂存在
从 24日的 18点(UTC)到 24日的 19点(UTC)
多云层高于600英尺

TAF: EGAA 241056Z 2412/2512 25007KT 9999 SCT012 BKN025 TEMPO 2412/2418 6000 RA -RADZ BKN007 PROB40 TEMPO 2412/2415 2000 +RA RADZ BKN004 PROB30 TEMPO 2415/2418 3000 +RA RADZ BECMG 2417/2420 34012KT PROB30 TEMPO 2418/2419 BKN006

超过4000个机场的气象观测和天气预报(METAR&TAF报告)。

可查询的气象台以黄色和红色小点在地图上表示。

将鼠标移到小点上方,可查看气象台名称。

然后点击查看天气观测和预报。

如需切换地图:点击带黑十字的绿色按钮放大地图;点击带横线的绿色按钮缩小地图;或者点击绿色箭头查看邻近地区的地图。


METAR-TAF: